RYR7H LIPX-EBCI
Flight info
| Callsign | RYR7H |
|---|---|
| Flight time | 1h 19m |
| Altitude | 32000 |
| Route | LEGLO DCT PEXUG DCT DESIP DCT SRN DCT CERVI DCT VADEM DCT GILIR DCT PENDU DCT IXILU DCT GIVOR DCT SORAL DCT IBERA DCT DIK Y37 BATTY |
| Aircraft | B38M/M-SDE1FGHILORVWXY/HB1 |
Departure
| Time | 2026-05-04 18:10 |
|---|---|
| Airport | Verona Villafranca Valerio Catullo Airport (LIPX) |
Arrival
| Time | 2026-05-04 19:30 |
|---|---|
| Airport | Brussels South Charleroi Airport (EBCI) |
| Time | Latitude | Longitude | Altitude | Speed | Heading |
|---|---|---|---|---|---|
| 2026-05-04 17:45 | 45.40378 | 10.90499 | 245 ft | 0 kts | 136° |
| 2026-05-04 18:06 | 45.40376 | 10.90502 | 245 ft | 1 kts | 136° |
| 2026-05-04 18:07 | 45.40364 | 10.90519 | 225 ft | 3 kts | 136° |
| 2026-05-04 18:07 | 45.40349 | 10.90531 | 248 ft | 1 kts | 168° |
| 2026-05-04 18:07 | 45.40336 | 10.90528 | 245 ft | 3 kts | 201° |
| 2026-05-04 18:07 | 45.40318 | 10.90506 | 245 ft | 5 kts | 223° |
| 2026-05-04 18:08 | 45.40291 | 10.90467 | 245 ft | 7 kts | 226° |
| 2026-05-04 18:08 | 45.40262 | 10.90406 | 245 ft | 8 kts | 262° |
| 2026-05-04 18:08 | 45.40293 | 10.90333 | 245 ft | 10 kts | 313° |
| 2026-05-04 18:08 | 45.40331 | 10.90247 | 245 ft | 11 kts | 272° |
| 2026-05-04 18:09 | 45.40371 | 10.90044 | 248 ft | 11 kts | 289° |
| 2026-05-04 18:09 | 45.40287 | 10.89895 | 249 ft | 21 kts | 226° |
| 2026-05-04 18:10 | 45.40023 | 10.89509 | 246 ft | 90 kts | 225° |
| 2026-05-04 18:10 | 45.39426 | 10.88642 | 241 ft | 151 kts | 225° |
| 2026-05-04 18:10 | 45.38615 | 10.87464 | 560 ft | 174 kts | 228° |
| 2026-05-04 18:10 | 45.37788 | 10.86104 | 1085 ft | 191 kts | 239° |
| 2026-05-04 18:11 | 45.37228 | 10.84369 | 1858 ft | 191 kts | 252° |
| 2026-05-04 18:11 | 45.36745 | 10.82527 | 2370 ft | 212 kts | 250° |
| 2026-05-04 18:11 | 45.36176 | 10.80475 | 2756 ft | 233 kts | 252° |
| 2026-05-04 18:11 | 45.36079 | 10.78166 | 3366 ft | 236 kts | 281° |
| 2026-05-04 18:12 | 45.36662 | 10.75940 | 3977 ft | 243 kts | 295° |
| 2026-05-04 18:12 | 45.37405 | 10.73763 | 4652 ft | 248 kts | 294° |
| 2026-05-04 18:12 | 45.38154 | 10.71531 | 5308 ft | 251 kts | 294° |
| 2026-05-04 18:12 | 45.38653 | 10.70034 | 5756 ft | 253 kts | 293° |
| 2026-05-04 18:13 | 45.38951 | 10.69137 | 6025 ft | 254 kts | 293° |
| 2026-05-04 18:13 | 45.40090 | 10.65691 | 7025 ft | 258 kts | 292° |
| 2026-05-04 18:14 | 45.40608 | 10.64119 | 7447 ft | 261 kts | 292° |
| 2026-05-04 18:14 | 45.41380 | 10.61773 | 8196 ft | 262 kts | 292° |
| 2026-05-04 18:14 | 45.42159 | 10.59403 | 8935 ft | 266 kts | 292° |
| 2026-05-04 18:15 | 45.43733 | 10.54608 | 10401 ft | 273 kts | 291° |
| 2026-05-04 18:15 | 45.45351 | 10.49671 | 11858 ft | 277 kts | 292° |
| 2026-05-04 18:15 | 45.46183 | 10.47126 | 12353 ft | 291 kts | 292° |
| 2026-05-04 18:16 | 45.47054 | 10.44461 | 12831 ft | 303 kts | 292° |
| 2026-05-04 18:16 | 45.47946 | 10.41735 | 13579 ft | 303 kts | 292° |
| 2026-05-04 18:16 | 45.48833 | 10.39018 | 14252 ft | 305 kts | 292° |
| 2026-05-04 18:17 | 45.50445 | 10.33185 | 14852 ft | 333 kts | 288° |
| 2026-05-04 18:17 | 45.51251 | 10.30055 | 15014 ft | 348 kts | 288° |
| 2026-05-04 18:17 | 45.52962 | 10.23495 | 16127 ft | 355 kts | 288° |
| 2026-05-04 18:18 | 45.53830 | 10.20178 | 16696 ft | 358 kts | 288° |
| 2026-05-04 18:18 | 45.54702 | 10.16837 | 17290 ft | 360 kts | 288° |
| 2026-05-04 18:18 | 45.55577 | 10.13483 | 17888 ft | 361 kts | 288° |
| 2026-05-04 18:18 | 45.56456 | 10.10111 | 18396 ft | 364 kts | 288° |
| 2026-05-04 18:19 | 45.58230 | 10.03286 | 19218 ft | 369 kts | 288° |
| 2026-05-04 18:19 | 45.59120 | 9.99833 | 19606 ft | 371 kts | 287° |
| 2026-05-04 18:19 | 45.59643 | 9.96277 | 19969 ft | 371 kts | 272° |
| 2026-05-04 18:20 | 45.59817 | 9.92582 | 20318 ft | 374 kts | 273° |
| 2026-05-04 18:20 | 45.60030 | 9.88860 | 20680 ft | 377 kts | 273° |
| 2026-05-04 18:20 | 45.60254 | 9.85126 | 21050 ft | 379 kts | 273° |
| 2026-05-04 18:20 | 45.60486 | 9.81363 | 21401 ft | 381 kts | 273° |
| 2026-05-04 18:21 | 45.60720 | 9.77578 | 21764 ft | 383 kts | 273° |
| 2026-05-04 18:21 | 45.60956 | 9.73783 | 22109 ft | 385 kts | 273° |
| 2026-05-04 18:21 | 45.61189 | 9.70021 | 22427 ft | 388 kts | 273° |
| 2026-05-04 18:21 | 45.61425 | 9.66173 | 22740 ft | 390 kts | 272° |
| 2026-05-04 18:22 | 45.61662 | 9.62303 | 23059 ft | 392 kts | 272° |
| 2026-05-04 18:22 | 45.61898 | 9.58419 | 23486 ft | 394 kts | 272° |
| 2026-05-04 18:22 | 45.62134 | 9.54510 | 23775 ft | 396 kts | 272° |
| 2026-05-04 18:22 | 45.62370 | 9.50589 | 24012 ft | 398 kts | 272° |
| 2026-05-04 18:23 | 45.62607 | 9.46630 | 24263 ft | 399 kts | 272° |
| 2026-05-04 18:23 | 45.62842 | 9.42669 | 24506 ft | 400 kts | 272° |
| 2026-05-04 18:23 | 45.63076 | 9.38705 | 24739 ft | 402 kts | 272° |
| 2026-05-04 18:23 | 45.63309 | 9.34725 | 24842 ft | 403 kts | 272° |
| 2026-05-04 18:24 | 45.63542 | 9.30734 | 25070 ft | 404 kts | 272° |
| 2026-05-04 18:24 | 45.63774 | 9.26735 | 25291 ft | 405 kts | 272° |
| 2026-05-04 18:24 | 45.64006 | 9.22717 | 25503 ft | 406 kts | 272° |
| 2026-05-04 18:24 | 45.64234 | 9.18731 | 25699 ft | 408 kts | 272° |
| 2026-05-04 18:25 | 45.64467 | 9.14638 | 25907 ft | 409 kts | 272° |
| 2026-05-04 18:25 | 45.64565 | 9.10580 | 26090 ft | 409 kts | 268° |
| 2026-05-04 18:25 | 45.64594 | 9.06510 | 26337 ft | 410 kts | 268° |
| 2026-05-04 18:25 | 45.64738 | 9.02436 | 26542 ft | 414 kts | 277° |
| 2026-05-04 18:26 | 45.65507 | 8.98537 | 26838 ft | 415 kts | 284° |
| 2026-05-04 18:26 | 45.66361 | 8.94580 | 26983 ft | 418 kts | 284° |
| 2026-05-04 18:26 | 45.67232 | 8.90613 | 27194 ft | 418 kts | 284° |
| 2026-05-04 18:26 | 45.68119 | 8.86631 | 27386 ft | 420 kts | 284° |
| 2026-05-04 18:27 | 45.69011 | 8.82653 | 27561 ft | 421 kts | 285° |
| 2026-05-04 18:27 | 45.69907 | 8.78666 | 27742 ft | 422 kts | 284° |
| 2026-05-04 18:27 | 45.70806 | 8.74661 | 27913 ft | 423 kts | 284° |
| 2026-05-04 18:27 | 45.71705 | 8.70647 | 28073 ft | 424 kts | 284° |
| 2026-05-04 18:28 | 45.72604 | 8.66631 | 28233 ft | 424 kts | 284° |
| 2026-05-04 18:28 | 45.73502 | 8.62608 | 28391 ft | 426 kts | 284° |
| 2026-05-04 18:28 | 45.74406 | 8.58552 | 28495 ft | 428 kts | 284° |
| 2026-05-04 18:28 | 45.75297 | 8.54544 | 28640 ft | 428 kts | 284° |
| 2026-05-04 18:29 | 45.76200 | 8.50478 | 28777 ft | 429 kts | 284° |
| 2026-05-04 18:29 | 45.77106 | 8.46386 | 28919 ft | 430 kts | 284° |
| 2026-05-04 18:29 | 45.78012 | 8.42292 | 29049 ft | 431 kts | 284° |
| 2026-05-04 18:29 | 45.78916 | 8.38194 | 29162 ft | 432 kts | 284° |
| 2026-05-04 18:30 | 45.80720 | 8.29999 | 29403 ft | 433 kts | 284° |
| 2026-05-04 18:30 | 45.81626 | 8.25869 | 29533 ft | 434 kts | 283° |
| 2026-05-04 18:30 | 45.82529 | 8.21742 | 29639 ft | 435 kts | 283° |
| 2026-05-04 18:31 | 45.83446 | 8.17548 | 29753 ft | 436 kts | 283° |
| 2026-05-04 18:31 | 45.84331 | 8.13495 | 29874 ft | 436 kts | 283° |
| 2026-05-04 18:31 | 45.85235 | 8.09344 | 29993 ft | 437 kts | 283° |
| 2026-05-04 18:31 | 45.86151 | 8.05124 | 30116 ft | 438 kts | 283° |
| 2026-05-04 18:32 | 45.87046 | 8.00997 | 30221 ft | 438 kts | 283° |
| 2026-05-04 18:32 | 45.88853 | 7.92642 | 30428 ft | 439 kts | 283° |
| 2026-05-04 18:32 | 45.89754 | 7.88459 | 30552 ft | 439 kts | 283° |
| 2026-05-04 18:33 | 45.90658 | 7.84256 | 30683 ft | 439 kts | 283° |
| 2026-05-04 18:33 | 45.91559 | 7.80060 | 30843 ft | 440 kts | 283° |
| 2026-05-04 18:33 | 45.92456 | 7.75870 | 31020 ft | 439 kts | 283° |
| 2026-05-04 18:33 | 45.93352 | 7.71679 | 31226 ft | 438 kts | 283° |
| 2026-05-04 18:34 | 45.94240 | 7.67523 | 31490 ft | 436 kts | 283° |
| 2026-05-04 18:34 | 45.95131 | 7.63346 | 31790 ft | 434 kts | 283° |
| 2026-05-04 18:34 | 45.96009 | 7.59222 | 32044 ft | 432 kts | 283° |
| 2026-05-04 18:34 | 45.97180 | 7.55217 | 32037 ft | 437 kts | 297° |
| 2026-05-04 18:35 | 45.99092 | 7.51781 | 32087 ft | 445 kts | 311° |
| 2026-05-04 18:35 | 46.03489 | 7.45570 | 32045 ft | 446 kts | 311° |
| 2026-05-04 18:36 | 46.07946 | 7.39336 | 32054 ft | 447 kts | 311° |
| 2026-05-04 18:36 | 46.12389 | 7.33140 | 32060 ft | 447 kts | 311° |
| 2026-05-04 18:37 | 46.16855 | 7.26901 | 32054 ft | 447 kts | 311° |
| 2026-05-04 18:37 | 46.21328 | 7.20636 | 32053 ft | 448 kts | 311° |
| 2026-05-04 18:38 | 46.25797 | 7.14362 | 32048 ft | 447 kts | 310° |
| 2026-05-04 18:38 | 46.30243 | 7.08106 | 32041 ft | 447 kts | 310° |
| 2026-05-04 18:39 | 46.34693 | 7.01829 | 32026 ft | 447 kts | 310° |
| 2026-05-04 18:39 | 46.39124 | 6.95564 | 32016 ft | 449 kts | 310° |
| 2026-05-04 18:40 | 46.43589 | 6.89234 | 32015 ft | 449 kts | 310° |
| 2026-05-04 18:40 | 46.48045 | 6.82902 | 32040 ft | 450 kts | 310° |
| 2026-05-04 18:41 | 46.52521 | 6.76527 | 32014 ft | 451 kts | 310° |
| 2026-05-04 18:41 | 46.57006 | 6.70124 | 32030 ft | 451 kts | 310° |
| 2026-05-04 18:42 | 46.61483 | 6.63717 | 32028 ft | 451 kts | 310° |
| 2026-05-04 18:42 | 46.65916 | 6.57358 | 32031 ft | 451 kts | 310° |
| 2026-05-04 18:43 | 46.70379 | 6.50943 | 32037 ft | 451 kts | 310° |
| 2026-05-04 18:43 | 46.72836 | 6.48057 | 32008 ft | 461 kts | 325° |
| 2026-05-04 18:43 | 46.75712 | 6.45927 | 32053 ft | 465 kts | 329° |
| 2026-05-04 18:44 | 46.81516 | 6.41717 | 32026 ft | 466 kts | 329° |
| 2026-05-04 18:44 | 46.87346 | 6.37545 | 32032 ft | 468 kts | 329° |
| 2026-05-04 18:45 | 46.93188 | 6.33363 | 32018 ft | 467 kts | 329° |
| 2026-05-04 18:45 | 46.99031 | 6.29171 | 32014 ft | 467 kts | 329° |
| 2026-05-04 18:46 | 47.04873 | 6.24968 | 32020 ft | 467 kts | 329° |
| 2026-05-04 18:46 | 47.10700 | 6.20777 | 32008 ft | 467 kts | 329° |
| 2026-05-04 18:47 | 47.16500 | 6.16594 | 32019 ft | 468 kts | 329° |
| 2026-05-04 18:47 | 47.22366 | 6.12354 | 32017 ft | 469 kts | 329° |
| 2026-05-04 18:48 | 47.28226 | 6.08107 | 32008 ft | 470 kts | 329° |
| 2026-05-04 18:48 | 47.34173 | 6.04145 | 31989 ft | 475 kts | 342° |
| 2026-05-04 18:48 | 47.37467 | 6.03463 | 32007 ft | 480 kts | 357° |
| 2026-05-04 18:49 | 47.40768 | 6.03489 | 32000 ft | 482 kts | 358° |
| 2026-05-04 18:49 | 47.47483 | 6.03564 | 32007 ft | 483 kts | 359° |
| 2026-05-04 18:50 | 47.54220 | 6.03699 | 32002 ft | 483 kts | 359° |
| 2026-05-04 18:50 | 47.60930 | 6.03846 | 31999 ft | 483 kts | 359° |
| 2026-05-04 18:51 | 47.67663 | 6.03996 | 32000 ft | 484 kts | 359° |
| 2026-05-04 18:51 | 47.74396 | 6.04355 | 31976 ft | 486 kts | 9° |
| 2026-05-04 18:52 | 47.80921 | 6.06756 | 31981 ft | 487 kts | 13° |
| 2026-05-04 18:52 | 47.87497 | 6.09195 | 32012 ft | 487 kts | 13° |
| 2026-05-04 18:53 | 47.94066 | 6.11668 | 32007 ft | 487 kts | 13° |
| 2026-05-04 18:53 | 48.00650 | 6.14155 | 32008 ft | 487 kts | 13° |
| 2026-05-04 18:54 | 48.07203 | 6.16637 | 32000 ft | 487 kts | 14° |
| 2026-05-04 18:54 | 48.13771 | 6.19131 | 32000 ft | 486 kts | 14° |
| 2026-05-04 18:55 | 48.20332 | 6.21628 | 31996 ft | 486 kts | 14° |
| 2026-05-04 18:55 | 48.30122 | 6.25367 | 31998 ft | 486 kts | 14° |
| 2026-05-04 18:56 | 48.36664 | 6.27874 | 32003 ft | 487 kts | 14° |
| 2026-05-04 18:56 | 48.43278 | 6.30417 | 31997 ft | 487 kts | 14° |
| 2026-05-04 18:57 | 48.49785 | 6.32923 | 31995 ft | 487 kts | 14° |
| 2026-05-04 18:57 | 48.56335 | 6.35454 | 31993 ft | 488 kts | 14° |
| 2026-05-04 18:58 | 48.62931 | 6.38008 | 31992 ft | 488 kts | 14° |
| 2026-05-04 18:58 | 48.69606 | 6.39508 | 32010 ft | 485 kts | 2° |
| 2026-05-04 18:59 | 48.76341 | 6.40198 | 32000 ft | 486 kts | 2° |
| 2026-05-04 18:59 | 48.83100 | 6.40884 | 31965 ft | 486 kts | 2° |
| 2026-05-04 19:00 | 48.89808 | 6.41565 | 31970 ft | 486 kts | 2° |
| 2026-05-04 19:00 | 48.96560 | 6.42252 | 31980 ft | 488 kts | 2° |
| 2026-05-04 19:01 | 49.02252 | 6.42833 | 31969 ft | 488 kts | 2° |
| 2026-05-04 19:01 | 49.09014 | 6.43518 | 31973 ft | 487 kts | 1° |
| 2026-05-04 19:02 | 49.12329 | 6.43208 | 31950 ft | 481 kts | 345° |
| 2026-05-04 19:02 | 49.15564 | 6.41956 | 31976 ft | 480 kts | 342° |
| 2026-05-04 19:02 | 49.22024 | 6.39394 | 31982 ft | 479 kts | 341° |
| 2026-05-04 19:03 | 49.28460 | 6.36757 | 31975 ft | 479 kts | 341° |
| 2026-05-04 19:03 | 49.34897 | 6.34103 | 31971 ft | 480 kts | 341° |
| 2026-05-04 19:04 | 49.41350 | 6.31434 | 31974 ft | 479 kts | 341° |
| 2026-05-04 19:04 | 49.47796 | 6.28762 | 31968 ft | 479 kts | 341° |
| 2026-05-04 19:05 | 49.52596 | 6.26789 | 31874 ft | 474 kts | 341° |
| 2026-05-04 19:05 | 49.55450 | 6.25622 | 31347 ft | 472 kts | 341° |
| 2026-05-04 19:05 | 49.58639 | 6.24316 | 30692 ft | 472 kts | 341° |
| 2026-05-04 19:06 | 49.61806 | 6.23016 | 30131 ft | 470 kts | 341° |
| 2026-05-04 19:06 | 49.64574 | 6.21879 | 29673 ft | 467 kts | 341° |
| 2026-05-04 19:06 | 49.66330 | 6.21156 | 29372 ft | 464 kts | 341° |
| 2026-05-04 19:06 | 49.68049 | 6.20449 | 29073 ft | 462 kts | 341° |
| 2026-05-04 19:07 | 49.71146 | 6.19172 | 28583 ft | 457 kts | 341° |
| 2026-05-04 19:07 | 49.74210 | 6.17909 | 28092 ft | 453 kts | 341° |
| 2026-05-04 19:07 | 49.77220 | 6.16665 | 27607 ft | 449 kts | 341° |
| 2026-05-04 19:07 | 49.80215 | 6.15426 | 27136 ft | 445 kts | 341° |
| 2026-05-04 19:08 | 49.81757 | 6.14788 | 26887 ft | 443 kts | 341° |
| 2026-05-04 19:08 | 49.84728 | 6.13557 | 26407 ft | 440 kts | 341° |
| 2026-05-04 19:08 | 49.87707 | 6.12471 | 25853 ft | 440 kts | 344° |
| 2026-05-04 19:08 | 49.90683 | 6.11448 | 25382 ft | 437 kts | 344° |
| 2026-05-04 19:09 | 49.93646 | 6.10410 | 24957 ft | 433 kts | 343° |
| 2026-05-04 19:09 | 49.96568 | 6.09380 | 24497 ft | 430 kts | 343° |
| 2026-05-04 19:09 | 49.99439 | 6.08366 | 24062 ft | 427 kts | 343° |
| 2026-05-04 19:09 | 50.02294 | 6.07355 | 23620 ft | 425 kts | 343° |
| 2026-05-04 19:10 | 50.05169 | 6.06338 | 23117 ft | 422 kts | 344° |
| 2026-05-04 19:10 | 50.08021 | 6.05325 | 22653 ft | 418 kts | 344° |
| 2026-05-04 19:10 | 50.10850 | 6.04320 | 22231 ft | 413 kts | 344° |
| 2026-05-04 19:10 | 50.13627 | 6.03332 | 21822 ft | 409 kts | 344° |
| 2026-05-04 19:11 | 50.16396 | 6.02346 | 21407 ft | 405 kts | 344° |
| 2026-05-04 19:11 | 50.19010 | 6.01414 | 21015 ft | 401 kts | 344° |
| 2026-05-04 19:11 | 50.20243 | 6.00974 | 20828 ft | 400 kts | 344° |
| 2026-05-04 19:11 | 50.20995 | 6.00706 | 20716 ft | 399 kts | 344° |
| 2026-05-04 19:12 | 50.22140 | 6.00296 | 20540 ft | 398 kts | 344° |
| 2026-05-04 19:12 | 50.26048 | 5.98900 | 19957 ft | 393 kts | 345° |
| 2026-05-04 19:12 | 50.28713 | 5.97945 | 19570 ft | 391 kts | 345° |
| 2026-05-04 19:13 | 50.31351 | 5.96999 | 19174 ft | 388 kts | 345° |
| 2026-05-04 19:13 | 50.33980 | 5.96056 | 18770 ft | 386 kts | 345° |
| 2026-05-04 19:13 | 50.36600 | 5.95114 | 18374 ft | 384 kts | 345° |
| 2026-05-04 19:13 | 50.39200 | 5.94180 | 17937 ft | 382 kts | 345° |
| 2026-05-04 19:14 | 50.41778 | 5.93251 | 17517 ft | 379 kts | 345° |
| 2026-05-04 19:14 | 50.44305 | 5.92340 | 17125 ft | 375 kts | 346° |
| 2026-05-04 19:14 | 50.46848 | 5.91422 | 16742 ft | 372 kts | 346° |
| 2026-05-04 19:14 | 50.49340 | 5.90522 | 16363 ft | 368 kts | 346° |
| 2026-05-04 19:15 | 50.51826 | 5.89623 | 15996 ft | 365 kts | 346° |
| 2026-05-04 19:15 | 50.54291 | 5.88731 | 15626 ft | 361 kts | 346° |
| 2026-05-04 19:15 | 50.56733 | 5.87846 | 15249 ft | 358 kts | 346° |
| 2026-05-04 19:15 | 50.59127 | 5.86978 | 14891 ft | 355 kts | 346° |
| 2026-05-04 19:16 | 50.61487 | 5.85890 | 14496 ft | 352 kts | 334° |
| 2026-05-04 19:16 | 50.63436 | 5.83628 | 14080 ft | 348 kts | 310° |
| 2026-05-04 19:16 | 50.64645 | 5.80377 | 13732 ft | 342 kts | 288° |
| 2026-05-04 19:16 | 50.65035 | 5.76710 | 13378 ft | 336 kts | 271° |
| 2026-05-04 19:17 | 50.65141 | 5.73059 | 13027 ft | 333 kts | 272° |
| 2026-05-04 19:17 | 50.65238 | 5.69432 | 12672 ft | 329 kts | 271° |
| 2026-05-04 19:17 | 50.65324 | 5.65841 | 12321 ft | 326 kts | 271° |
| 2026-05-04 19:17 | 50.65236 | 5.62330 | 11905 ft | 324 kts | 259° |
| 2026-05-04 19:18 | 50.64798 | 5.58827 | 11397 ft | 327 kts | 259° |
| 2026-05-04 19:18 | 50.64365 | 5.55306 | 10969 ft | 327 kts | 260° |
| 2026-05-04 19:18 | 50.63943 | 5.51788 | 10613 ft | 325 kts | 260° |
| 2026-05-04 19:18 | 50.63531 | 5.48315 | 10379 ft | 319 kts | 260° |
| 2026-05-04 19:19 | 50.63132 | 5.44942 | 10249 ft | 309 kts | 260° |
| 2026-05-04 19:19 | 50.62744 | 5.41660 | 10112 ft | 300 kts | 260° |
| 2026-05-04 19:19 | 50.62534 | 5.39886 | 10007 ft | 296 kts | 260° |
| 2026-05-04 19:19 | 50.62326 | 5.38132 | 9857 ft | 294 kts | 261° |
| 2026-05-04 19:20 | 50.61951 | 5.34966 | 9505 ft | 293 kts | 260° |
| 2026-05-04 19:20 | 50.61577 | 5.31815 | 9160 ft | 292 kts | 260° |
| 2026-05-04 19:20 | 50.61209 | 5.28718 | 8851 ft | 290 kts | 260° |
| 2026-05-04 19:20 | 50.60839 | 5.25613 | 8531 ft | 288 kts | 260° |
| 2026-05-04 19:21 | 50.60469 | 5.22522 | 8224 ft | 286 kts | 260° |
| 2026-05-04 19:21 | 50.60102 | 5.19456 | 7912 ft | 284 kts | 260° |
| 2026-05-04 19:21 | 50.59737 | 5.16414 | 7615 ft | 282 kts | 260° |
| 2026-05-04 19:21 | 50.59373 | 5.13392 | 7315 ft | 280 kts | 260° |
| 2026-05-04 19:22 | 50.59011 | 5.10391 | 7009 ft | 278 kts | 260° |
| 2026-05-04 19:22 | 50.58649 | 5.07401 | 6708 ft | 277 kts | 260° |
| 2026-05-04 19:22 | 50.58290 | 5.04435 | 6418 ft | 275 kts | 260° |
| 2026-05-04 19:22 | 50.57936 | 5.01515 | 6107 ft | 274 kts | 260° |
| 2026-05-04 19:23 | 50.57578 | 4.98580 | 5794 ft | 272 kts | 260° |
| 2026-05-04 19:23 | 50.57222 | 4.95661 | 5488 ft | 270 kts | 260° |
| 2026-05-04 19:23 | 50.56873 | 4.92806 | 5352 ft | 263 kts | 260° |
| 2026-05-04 19:23 | 50.56533 | 4.90028 | 5225 ft | 254 kts | 260° |
| 2026-05-04 19:24 | 50.56204 | 4.87348 | 5094 ft | 246 kts | 260° |
| 2026-05-04 19:24 | 50.55886 | 4.84764 | 4961 ft | 238 kts | 259° |
| 2026-05-04 19:24 | 50.55580 | 4.82280 | 4872 ft | 227 kts | 260° |
| 2026-05-04 19:24 | 50.55285 | 4.79890 | 4750 ft | 218 kts | 260° |
| 2026-05-04 19:25 | 50.54973 | 4.77605 | 4578 ft | 211 kts | 256° |
| 2026-05-04 19:25 | 50.54549 | 4.75429 | 4369 ft | 207 kts | 252° |
| 2026-05-04 19:25 | 50.54045 | 4.73319 | 4122 ft | 204 kts | 249° |
| 2026-05-04 19:25 | 50.53499 | 4.71268 | 3874 ft | 202 kts | 248° |
| 2026-05-04 19:26 | 50.52950 | 4.69310 | 3625 ft | 200 kts | 247° |
| 2026-05-04 19:26 | 50.52384 | 4.67343 | 3385 ft | 198 kts | 246° |
| 2026-05-04 19:26 | 50.51815 | 4.65373 | 3136 ft | 197 kts | 246° |
| 2026-05-04 19:26 | 50.51249 | 4.63417 | 2876 ft | 195 kts | 246° |
| 2026-05-04 19:27 | 50.50701 | 4.61525 | 2635 ft | 186 kts | 247° |
| 2026-05-04 19:27 | 50.50172 | 4.59702 | 2382 ft | 179 kts | 247° |
| 2026-05-04 19:27 | 50.49681 | 4.58014 | 2180 ft | 160 kts | 247° |
| 2026-05-04 19:27 | 50.49240 | 4.56494 | 1959 ft | 148 kts | 247° |
| 2026-05-04 19:28 | 50.48827 | 4.55052 | 1753 ft | 147 kts | 248° |
| 2026-05-04 19:28 | 50.48417 | 4.53589 | 1561 ft | 146 kts | 246° |
| 2026-05-04 19:28 | 50.47983 | 4.52148 | 1361 ft | 145 kts | 246° |
| 2026-05-04 19:28 | 50.47558 | 4.50716 | 1146 ft | 145 kts | 246° |
| 2026-05-04 19:29 | 50.47350 | 4.49999 | 1048 ft | 144 kts | 247° |
| 2026-05-04 19:29 | 50.47115 | 4.49161 | 931 ft | 144 kts | 246° |
| 2026-05-04 19:29 | 50.46705 | 4.47754 | 729 ft | 142 kts | 244° |
| 2026-05-04 19:29 | 50.46299 | 4.46356 | 594 ft | 134 kts | 244° |
| 2026-05-04 19:30 | 50.45962 | 4.45289 | 592 ft | 92 kts | 248° |
| 2026-05-04 19:30 | 50.45788 | 4.44610 | 601 ft | 55 kts | 245° |
| 2026-05-04 19:30 | 50.45653 | 4.44144 | 596 ft | 33 kts | 245° |
| 2026-05-04 19:30 | 50.45679 | 4.43977 | 596 ft | 8 kts | 21° |
| 2026-05-04 19:31 | 50.45717 | 4.44042 | 597 ft | 9 kts | 51° |
| 2026-05-04 19:31 | 50.45759 | 4.44125 | 597 ft | 10 kts | 52° |
| 2026-05-04 19:31 | 50.45801 | 4.44211 | 600 ft | 9 kts | 52° |
| 2026-05-04 19:31 | 50.45839 | 4.44289 | 602 ft | 10 kts | 52° |
| 2026-05-04 19:32 | 50.45886 | 4.44385 | 602 ft | 12 kts | 52° |
| 2026-05-04 19:32 | 50.45936 | 4.44503 | 602 ft | 14 kts | 63° |
| 2026-05-04 19:32 | 50.45978 | 4.44650 | 600 ft | 17 kts | 64° |
| 2026-05-04 19:32 | 50.46033 | 4.44833 | 599 ft | 19 kts | 65° |
| 2026-05-04 19:33 | 50.46092 | 4.45036 | 598 ft | 22 kts | 66° |
| 2026-05-04 19:33 | 50.46154 | 4.45251 | 602 ft | 22 kts | 65° |
| 2026-05-04 19:33 | 50.46221 | 4.45476 | 601 ft | 24 kts | 65° |
| 2026-05-04 19:33 | 50.46291 | 4.45719 | 600 ft | 26 kts | 66° |
| 2026-05-04 19:34 | 50.46329 | 4.45851 | 600 ft | 27 kts | 65° |
| 2026-05-04 19:34 | 50.46410 | 4.46129 | 594 ft | 30 kts | 65° |
| 2026-05-04 19:34 | 50.46492 | 4.46406 | 591 ft | 18 kts | 64° |
| 2026-05-04 19:34 | 50.46546 | 4.46567 | 593 ft | 8 kts | 43° |
| 2026-05-04 19:35 | 50.46568 | 4.46569 | 593 ft | 3 kts | 344° |
| 2026-05-04 19:35 | 50.46598 | 4.46557 | 593 ft | 6 kts | 354° |
| 2026-05-04 19:35 | 50.46619 | 4.46582 | 593 ft | 4 kts | 69° |
| 2026-05-04 19:35 | 50.46650 | 4.46700 | 592 ft | 17 kts | 65° |